Time;durP1;ratioP1;P1;durP2;ratioP2;P2;SDS_P1;SDS_P2;PMS_P1;PMS_P2;Temp;Humidity;BMP_temperature;BMP_pressure;BME280_temperature;BME280_humidity;BME280_pressure;Samples;Min_cycle;Max_cycle;Signal;HPM_P1;HPM_P2
2021/05/03 00:02:04;;;;;;;2.33;0.50;;;;;;;;;;5011393;28;20042;-57
2021/05/03 00:04:30;;;;;;;2.05;0.50;;;;;;;;;;5009040;28;20045;-57
2021/05/03 00:06:56;;;;;;;2.25;0.50;;;;;;;;;;5008926;28;20048;-54
2021/05/03 00:09:22;;;;;;;2.35;0.50;;;;;;;;;;5009773;28;20046;-56
2021/05/03 00:11:48;;;;;;;1.52;0.50;;;;;;;;;;5008183;28;20536;-54
2021/05/03 00:14:14;;;;;;;7.68;0.60;;;;;;;;;;5008244;28;20490;-57
2021/05/03 00:16:42;;;;;;;5.82;0.60;;;;;;;;;;4998284;28;20095;-58
2021/05/03 00:19:08;;;;;;;1.90;0.50;;;;;;;;;;5007401;28;20038;-60
2021/05/03 00:21:34;;;;;;;2.92;0.60;;;;;;;;;;5000730;28;20045;-58
2021/05/03 00:24:00;;;;;;;1.55;0.50;;;;;;;;;;5009819;28;20667;-57
2021/05/03 00:26:26;;;;;;;7.88;0.68;;;;;;;;;;5006795;28;21088;-58
2021/05/03 00:28:52;;;;;;;3.55;0.63;;;;;;;;;;5010176;28;20040;-58
2021/05/03 00:31:18;;;;;;;2.63;0.55;;;;;;;;;;5006759;28;20041;-59
2021/05/03 00:33:44;;;;;;;5.90;0.80;;;;;;;;;;5008839;28;20404;-56
2021/05/03 00:36:10;;;;;;;2.50;0.60;;;;;;;;;;5010137;28;20037;-56
2021/05/03 00:38:42;;;;;;;2.03;0.60;;;;;;;;;;5001952;28;21187;-56
2021/05/03 00:41:08;;;;;;;5.68;0.65;;;;;;;;;;5014201;28;20093;-53
2021/05/03 00:43:34;;;;;;;6.53;1.00;;;;;;;;;;4993187;28;20053;-56
2021/05/03 00:46:03;;;;;;;6.03;0.80;;;;;;;;;;4993391;28;20732;-55
2021/05/03 00:48:29;;;;;;;2.97;0.73;;;;;;;;;;5005918;28;20121;-55
2021/05/03 00:50:54;;;;;;;3.50;0.77;;;;;;;;;;4999172;28;20083;-56
2021/05/03 00:53:20;;;;;;;2.70;0.80;;;;;;;;;;5009023;28;20062;-57
2021/05/03 00:55:47;;;;;;;2.60;0.90;;;;;;;;;;5007768;28;20048;-57
2021/05/03 00:58:13;;;;;;;1.52;0.55;;;;;;;;;;4976270;28;20060;-55
2021/05/03 01:00:39;;;;;;;2.45;0.85;;;;;;;;;;4982850;28;20052;-57
2021/05/03 01:03:08;;;;;;;2.95;0.90;;;;;;;;;;5005291;28;20053;-57
2021/05/03 01:05:34;;;;;;;3.15;1.05;;;;;;;;;;5007063;28;20048;-55
2021/05/03 01:08:00;;;;;;;2.50;0.70;;;;;;;;;;5008135;28;20484;-56
2021/05/03 01:10:27;;;;;;;2.75;0.70;;;;;;;;;;5007765;28;20037;-56
2021/05/03 01:12:53;;;;;;;2.40;0.70;;;;;;;;;;5006871;28;20060;-57
2021/05/03 01:15:24;;;;;;;2.08;0.73;;;;;;;;;;5005604;28;20025;-57
2021/05/03 01:17:59;;;;;;;2.60;0.60;;;;;;;;;;5011483;28;20126;-57
2021/05/03 01:20:26;;;;;;;1.98;0.63;;;;;;;;;;5008342;28;20034;-58
2021/05/03 01:22:56;;;;;;;2.60;0.80;;;;;;;;;;5007476;28;20033;-56
2021/05/03 01:25:23;;;;;;;2.35;0.50;;;;;;;;;;5012835;28;20076;-57
2021/05/03 01:27:49;;;;;;;3.05;1.30;;;;;;;;;;4989479;28;20030;-57
2021/05/03 01:30:16;;;;;;;2.53;0.70;;;;;;;;;;5010046;28;20066;-58
2021/05/03 01:32:42;;;;;;;2.70;1.20;;;;;;;;;;5009589;28;20060;-57
2021/05/03 01:35:11;;;;;;;2.97;0.98;;;;;;;;;;5017778;28;20029;-58
2021/05/03 01:37:37;;;;;;;2.95;0.80;;;;;;;;;;5009632;28;20045;-58
2021/05/03 01:40:04;;;;;;;2.78;0.80;;;;;;;;;;4996146;28;20908;-58
2021/05/03 01:42:30;;;;;;;6.25;1.10;;;;;;;;;;4986511;28;20049;-55
2021/05/03 01:44:58;;;;;;;2.17;0.80;;;;;;;;;;5012044;28;20052;-58
2021/05/03 01:47:25;;;;;;;5.72;0.85;;;;;;;;;;5016729;28;20044;-57
2021/05/03 01:49:51;;;;;;;2.17;0.70;;;;;;;;;;5013564;28;20049;-56
2021/05/03 01:52:17;;;;;;;3.03;0.80;;;;;;;;;;5009978;28;20060;-58
2021/05/03 01:54:43;;;;;;;4.35;0.70;;;;;;;;;;5013325;28;20586;-58
2021/05/03 01:57:09;;;;;;;3.15;0.68;;;;;;;;;;5011853;28;20042;-58
2021/05/03 01:59:35;;;;;;;3.22;0.90;;;;;;;;;;5009525;28;20056;-57
2021/05/03 02:02:01;;;;;;;2.83;0.70;;;;;;;;;;4995227;28;20056;-55
2021/05/03 02:04:27;;;;;;;5.22;0.70;;;;;;;;;;5017932;28;20041;-58
2021/05/03 02:06:52;;;;;;;2.40;0.70;;;;;;;;;;5012213;28;20060;-55
2021/05/03 02:09:18;;;;;;;2.33;0.73;;;;;;;;;;4984550;28;20065;-55
2021/05/03 02:11:44;;;;;;;2.47;0.70;;;;;;;;;;5025082;28;20138;-56
2021/05/03 02:14:11;;;;;;;2.05;0.60;;;;;;;;;;5011619;28;20291;-56
2021/05/03 02:16:36;;;;;;;2.33;0.60;;;;;;;;;;5008471;28;20075;-59
2021/05/03 02:19:02;;;;;;;2.50;0.70;;;;;;;;;;4997041;28;20948;-58
2021/05/03 02:21:29;;;;;;;1.95;0.60;;;;;;;;;;5010750;28;20047;-58
2021/05/03 02:23:54;;;;;;;2.38;0.90;;;;;;;;;;5010016;28;20046;-59
2021/05/03 02:26:20;;;;;;;3.08;0.60;;;;;;;;;;5000959;28;20098;-57
2021/05/03 02:28:49;;;;;;;3.45;0.70;;;;;;;;;;5016796;28;20069;-57
2021/05/03 02:31:15;;;;;;;3.75;0.60;;;;;;;;;;4993593;28;20041;-57
2021/05/03 02:33:41;;;;;;;2.95;0.80;;;;;;;;;;5011275;28;20202;-54
2021/05/03 02:36:10;;;;;;;3.70;0.75;;;;;;;;;;4979698;28;20065;-53
2021/05/03 02:38:36;;;;;;;4.38;0.80;;;;;;;;;;5010246;28;22124;-57
2021/05/03 02:41:02;;;;;;;3.65;0.68;;;;;;;;;;4999877;28;20085;-57
2021/05/03 02:43:28;;;;;;;2.30;0.60;;;;;;;;;;4988467;28;20123;-58
2021/05/03 02:45:54;;;;;;;3.38;0.80;;;;;;;;;;5010869;28;20037;-57
2021/05/03 02:48:20;;;;;;;2.20;0.80;;;;;;;;;;5014755;28;20034;-57
2021/05/03 02:50:46;;;;;;;2.15;0.70;;;;;;;;;;5009586;28;20626;-57
2021/05/03 02:53:12;;;;;;;6.90;1.02;;;;;;;;;;4996814;28;20085;-55
2021/05/03 02:55:38;;;;;;;4.68;0.80;;;;;;;;;;5002445;28;20037;-57
2021/05/03 02:58:03;;;;;;;7.85;2.22;;;;;;;;;;5010497;28;20037;-54
2021/05/03 03:00:32;;;;;;;4.10;1.08;;;;;;;;;;4998662;28;20159;-57
2021/05/03 03:02:58;;;;;;;4.38;0.82;;;;;;;;;;5016666;28;20043;-57
2021/05/03 03:05:24;;;;;;;3.05;0.90;;;;;;;;;;5011889;28;20126;-56
2021/05/03 03:07:50;;;;;;;2.75;0.85;;;;;;;;;;5013995;28;20042;-57
2021/05/03 03:10:17;;;;;;;3.50;0.85;;;;;;;;;;4980647;28;20193;-58
2021/05/03 03:12:47;;;;;;;3.55;1.10;;;;;;;;;;4986758;28;20725;-58
2021/05/03 03:15:15;;;;;;;3.65;1.30;;;;;;;;;;5014113;28;22080;-59
2021/05/03 03:17:43;;;;;;;4.60;0.85;;;;;;;;;;4999301;28;20096;-58
2021/05/03 03:20:10;;;;;;;4.28;1.08;;;;;;;;;;4996323;28;20523;-57
2021/05/03 03:22:36;;;;;;;2.92;1.10;;;;;;;;;;4995276;28;20046;-58
2021/05/03 03:25:03;;;;;;;4.93;1.15;;;;;;;;;;5010675;28;22049;-58
2021/05/03 03:27:28;;;;;;;4.05;1.20;;;;;;;;;;5010310;28;20051;-59
2021/05/03 03:29:54;;;;;;;3.45;1.13;;;;;;;;;;5009111;28;20610;-57
2021/05/03 03:32:20;;;;;;;3.17;1.27;;;;;;;;;;4990724;28;20056;-55
2021/05/03 03:34:46;;;;;;;2.67;1.20;;;;;;;;;;5010545;28;20033;-57
2021/05/03 03:37:15;;;;;;;5.28;1.00;;;;;;;;;;5011108;28;20092;-57
2021/05/03 03:39:41;;;;;;;2.75;1.00;;;;;;;;;;5012197;28;20033;-58
2021/05/03 03:42:07;;;;;;;4.22;1.10;;;;;;;;;;5017029;28;20128;-57
2021/05/03 03:44:33;;;;;;;2.50;0.90;;;;;;;;;;5013987;28;20175;-55
2021/05/03 03:46:59;;;;;;;4.13;1.17;;;;;;;;;;4994879;28;20044;-57
2021/05/03 03:49:25;;;;;;;6.13;1.20;;;;;;;;;;5009923;28;20101;-56
2021/05/03 03:51:51;;;;;;;3.45;1.20;;;;;;;;;;5013158;28;20053;-56
2021/05/03 03:54:17;;;;;;;3.22;1.20;;;;;;;;;;5012749;28;20052;-59
2021/05/03 03:56:44;;;;;;;8.15;1.48;;;;;;;;;;5010923;28;20056;-59
2021/05/03 03:59:11;;;;;;;5.25;1.20;;;;;;;;;;5010832;28;20100;-57
2021/05/03 04:01:37;;;;;;;3.08;1.20;;;;;;;;;;5010763;28;20503;-58
2021/05/03 04:04:10;;;;;;;4.63;1.50;;;;;;;;;;4994676;28;20042;-54
2021/05/03 04:06:52;;;;;;;;;;;;;;;;;;4993068;28;20069;-56
2021/05/03 04:12:24;;;;;;;3.10;1.13;;;;;;;;;;4995660;28;20068;-58
2021/05/03 04:28:01;;;;;;;4.18;1.70;;;;;;;;;;5012181;28;20786;-56
2021/05/03 04:30:27;;;;;;;4.07;1.98;;;;;;;;;;5007246;28;20041;-56
2021/05/03 04:32:53;;;;;;;4.78;1.70;;;;;;;;;;4994175;28;21003;-57
2021/05/03 04:35:19;;;;;;;5.40;1.75;;;;;;;;;;5009763;28;20030;-56
2021/05/03 04:37:45;;;;;;;3.20;1.65;;;;;;;;;;5010364;28;20034;-56
2021/05/03 04:40:11;;;;;;;5.82;1.95;;;;;;;;;;4993074;28;20513;-53
2021/05/03 04:42:37;;;;;;;4.30;2.10;;;;;;;;;;4991440;28;20054;-57
2021/05/03 04:45:04;;;;;;;3.60;1.58;;;;;;;;;;5007777;28;20045;-57
2021/05/03 04:47:30;;;;;;;4.13;1.50;;;;;;;;;;5007510;28;20042;-56
2021/05/03 04:49:58;;;;;;;5.03;1.30;;;;;;;;;;5000593;28;20487;-56
2021/05/03 04:52:27;;;;;;;4.80;1.10;;;;;;;;;;5006905;28;20050;-58
2021/05/03 04:54:53;;;;;;;3.00;1.27;;;;;;;;;;5004043;28;22665;-54
2021/05/03 04:57:19;;;;;;;4.35;1.48;;;;;;;;;;5020458;28;20049;-55
2021/05/03 04:59:54;;;;;;;6.20;1.50;;;;;;;;;;5006466;28;20868;-55
2021/05/03 05:02:20;;;;;;;6.10;1.80;;;;;;;;;;5023038;28;20053;-53
2021/05/03 05:04:46;;;;;;;2.70;1.20;;;;;;;;;;5010674;28;20053;-57
2021/05/03 05:07:12;;;;;;;2.70;1.17;;;;;;;;;;5011900;28;20050;-56
2021/05/03 05:09:38;;;;;;;2.83;1.10;;;;;;;;;;4995980;28;20914;-56
2021/05/03 05:12:04;;;;;;;2.88;1.05;;;;;;;;;;5012424;28;20052;-56
2021/05/03 05:14:31;;;;;;;3.33;1.10;;;;;;;;;;5011872;28;20052;-57
2021/05/03 05:16:57;;;;;;;2.95;1.02;;;;;;;;;;5012888;28;20041;-54
2021/05/03 05:19:24;;;;;;;2.58;0.82;;;;;;;;;;5001801;28;20403;-57
2021/05/03 05:21:50;;;;;;;4.25;1.00;;;;;;;;;;5028105;28;21051;-57
2021/05/03 05:24:16;;;;;;;3.25;1.38;;;;;;;;;;4995940;28;20715;-56
2021/05/03 05:26:45;;;;;;;4.40;1.10;;;;;;;;;;4996148;28;20044;-58
2021/05/03 05:29:11;;;;;;;3.22;1.00;;;;;;;;;;5012315;28;20037;-52
2021/05/03 05:31:36;;;;;;;3.90;1.05;;;;;;;;;;5010423;28;20045;-54
2021/05/03 05:34:02;;;;;;;3.83;1.02;;;;;;;;;;5013443;28;20883;-58
2021/05/03 05:36:32;;;;;;;3.53;1.00;;;;;;;;;;4995641;28;20079;-53
2021/05/03 05:39:00;;;;;;;3.28;1.40;;;;;;;;;;5017595;28;20049;-56
2021/05/03 05:41:27;;;;;;;3.42;1.50;;;;;;;;;;5012410;28;20049;-57
2021/05/03 05:43:53;;;;;;;3.80;1.50;;;;;;;;;;5013616;28;20057;-57
2021/05/03 05:46:19;;;;;;;4.03;1.10;;;;;;;;;;5013358;28;20436;-56
2021/05/03 05:48:46;;;;;;;2.70;1.10;;;;;;;;;;4996566;28;20090;-56
2021/05/03 05:51:12;;;;;;;5.47;1.00;;;;;;;;;;4995900;28;20037;-54
2021/05/03 05:53:38;;;;;;;2.90;1.17;;;;;;;;;;5004734;28;20053;-57
2021/05/03 05:56:04;;;;;;;4.35;1.30;;;;;;;;;;5013967;28;20052;-58
2021/05/03 05:58:32;;;;;;;3.47;1.20;;;;;;;;;;5011231;28;20086;-55
2021/05/03 06:00:58;;;;;;;3.50;1.35;;;;;;;;;;5011350;28;20049;-56
2021/05/03 06:03:24;;;;;;;4.53;1.30;;;;;;;;;;5002981;28;20033;-57
2021/05/03 06:05:50;;;;;;;2.90;1.20;;;;;;;;;;5027614;28;20057;-57
2021/05/03 06:08:16;;;;;;;3.70;1.38;;;;;;;;;;5009858;28;20109;-58
2021/05/03 06:10:42;;;;;;;3.95;1.30;;;;;;;;;;5009539;28;20463;-54
2021/05/03 06:13:08;;;;;;;3.00;1.25;;;;;;;;;;5012115;28;20049;-56
2021/05/03 06:15:34;;;;;;;3.58;1.55;;;;;;;;;;5011179;28;20056;-54
2021/05/03 06:18:03;;;;;;;3.95;1.58;;;;;;;;;;5011742;28;20048;-56
2021/05/03 06:20:29;;;;;;;3.38;1.48;;;;;;;;;;5011073;28;20848;-58
2021/05/03 06:23:03;;;;;;;5.10;1.67;;;;;;;;;;5013204;28;20053;-54
2021/05/03 06:25:29;;;;;;;3.63;1.60;;;;;;;;;;5010379;28;20041;-58
2021/05/03 06:27:55;;;;;;;4.38;1.45;;;;;;;;;;5011920;28;20034;-55
2021/05/03 06:30:23;;;;;;;4.28;1.48;;;;;;;;;;5009466;28;20049;-58
2021/05/03 06:32:49;;;;;;;3.10;1.30;;;;;;;;;;5006843;28;20174;-57
2021/05/03 06:35:15;;;;;;;7.38;2.53;;;;;;;;;;5023764;28;20040;-54
2021/05/03 06:37:41;;;;;;;7.47;3.20;;;;;;;;;;5008929;28;20033;-55
2021/05/03 06:40:12;;;;;;;7.03;2.80;;;;;;;;;;5011538;28;20052;-54
2021/05/03 06:42:38;;;;;;;4.50;2.17;;;;;;;;;;5011913;28;20061;-54
2021/05/03 06:45:04;;;;;;;3.70;1.95;;;;;;;;;;5012511;28;20042;-58
2021/05/03 06:47:30;;;;;;;3.70;2.03;;;;;;;;;;4995606;28;20085;-56
2021/05/03 06:49:56;;;;;;;5.43;1.50;;;;;;;;;;5011065;28;20049;-58
2021/05/03 06:52:22;;;;;;;3.40;1.40;;;;;;;;;;5009427;28;20066;-57
2021/05/03 06:54:48;;;;;;;3.00;1.35;;;;;;;;;;5010809;28;20410;-55
2021/05/03 06:57:16;;;;;;;3.28;1.35;;;;;;;;;;5009833;28;20041;-54
2021/05/03 06:59:42;;;;;;;2.80;1.10;;;;;;;;;;5009933;28;20033;-55
2021/05/03 07:02:09;;;;;;;3.35;1.05;;;;;;;;;;5010887;28;20041;-55
2021/05/03 07:04:38;;;;;;;2.78;1.10;;;;;;;;;;5009480;28;20041;-54
2021/05/03 07:07:05;;;;;;;4.85;1.05;;;;;;;;;;5011021;28;20047;-57
2021/05/03 07:09:32;;;;;;;2.90;0.90;;;;;;;;;;4993195;28;20036;-56
2021/05/03 07:11:59;;;;;;;3.75;1.05;;;;;;;;;;5009370;28;20041;-58
2021/05/03 07:14:26;;;;;;;2.40;0.90;;;;;;;;;;5010247;28;20038;-56
2021/05/03 07:16:52;;;;;;;2.50;1.02;;;;;;;;;;4996277;28;20104;-57
2021/05/03 07:19:18;;;;;;;2.75;0.80;;;;;;;;;;5004929;28;20040;-55
2021/05/03 07:21:44;;;;;;;2.83;0.90;;;;;;;;;;5009938;28;20045;-56
2021/05/03 07:24:14;;;;;;;2.40;0.80;;;;;;;;;;4992766;28;20147;-59
2021/05/03 07:26:40;;;;;;;3.20;0.90;;;;;;;;;;5016019;28;20041;-53
2021/05/03 07:29:06;;;;;;;2.63;0.90;;;;;;;;;;4991655;28;20037;-57
2021/05/03 07:31:32;;;;;;;2.70;1.00;;;;;;;;;;5015518;28;20034;-56
2021/05/03 07:33:58;;;;;;;2.80;1.00;;;;;;;;;;5024989;28;20053;-57
2021/05/03 07:36:25;;;;;;;3.88;0.90;;;;;;;;;;5008379;28;20045;-57
2021/05/03 07:38:52;;;;;;;3.13;1.00;;;;;;;;;;5010830;28;20160;-55
2021/05/03 07:41:18;;;;;;;2.80;1.08;;;;;;;;;;5008206;28;21186;-54
2021/05/03 07:43:44;;;;;;;2.65;1.10;;;;;;;;;;4978705;28;20132;-53
2021/05/03 07:46:10;;;;;;;2.78;1.02;;;;;;;;;;5024730;28;20048;-56
2021/05/03 07:48:45;;;;;;;3.17;1.85;;;;;;;;;;5008872;28;20041;-56
2021/05/03 07:51:11;;;;;;;2.70;1.13;;;;;;;;;;5011947;28;20103;-56
2021/05/03 07:53:36;;;;;;;3.13;1.38;;;;;;;;;;5009177;28;22823;-57
2021/05/03 07:56:02;;;;;;;2.90;1.20;;;;;;;;;;5011136;28;20042;-57
2021/05/03 07:58:28;;;;;;;3.45;1.13;;;;;;;;;;5007689;28;20088;-55
2021/05/03 08:00:54;;;;;;;2.97;1.25;;;;;;;;;;4994713;28;20045;-56
2021/05/03 08:03:20;;;;;;;2.80;1.10;;;;;;;;;;5008914;28;20508;-57
2021/05/03 08:05:46;;;;;;;3.00;1.10;;;;;;;;;;5025450;28;20446;-56
2021/05/03 08:08:12;;;;;;;3.88;1.00;;;;;;;;;;5008413;28;20060;-55
2021/05/03 08:10:38;;;;;;;5.03;1.10;;;;;;;;;;5007627;28;20504;-54
2021/05/03 08:13:04;;;;;;;2.70;1.00;;;;;;;;;;5009874;28;20673;-56
2021/05/03 08:15:30;;;;;;;2.65;1.00;;;;;;;;;;5008991;28;20043;-58
2021/05/03 08:17:58;;;;;;;3.28;1.00;;;;;;;;;;5009737;28;20041;-55
2021/05/03 08:20:24;;;;;;;3.05;1.00;;;;;;;;;;5008215;28;20041;-57
2021/05/03 08:22:52;;;;;;;2.80;0.90;;;;;;;;;;5009252;28;20035;-56
2021/05/03 08:25:18;;;;;;;4.22;1.00;;;;;;;;;;5006745;28;20041;-58
2021/05/03 08:27:43;;;;;;;2.70;1.10;;;;;;;;;;5009005;28;20878;-57
2021/05/03 08:30:10;;;;;;;4.45;1.05;;;;;;;;;;5009802;28;20068;-56
2021/05/03 08:32:36;;;;;;;2.95;0.95;;;;;;;;;;5007059;28;20041;-56
2021/05/03 08:35:02;;;;;;;2.40;0.90;;;;;;;;;;5004543;28;20090;-57
2021/05/03 08:37:28;;;;;;;2.97;1.02;;;;;;;;;;4991519;28;20045;-56
2021/05/03 08:39:57;;;;;;;2.70;0.93;;;;;;;;;;4993943;28;20077;-58
2021/05/03 08:42:23;;;;;;;2.90;1.15;;;;;;;;;;5002124;28;20058;-57
2021/05/03 08:44:51;;;;;;;3.90;0.93;;;;;;;;;;4996125;28;20047;-57
2021/05/03 08:47:21;;;;;;;3.10;1.08;;;;;;;;;;4995907;28;20037;-56
2021/05/03 08:50:05;;;;;;;2.63;1.10;;;;;;;;;;5010791;28;20041;-56
2021/05/03 08:52:44;;;;;;;2.70;1.08;;;;;;;;;;5011425;28;20056;-55
2021/05/03 08:55:11;;;;;;;3.45;1.30;;;;;;;;;;5000907;28;20093;-54
2021/05/03 08:57:37;;;;;;;2.80;1.00;;;;;;;;;;5019810;28;20205;-56
2021/05/03 09:00:04;;;;;;;2.80;1.35;;;;;;;;;;5012054;28;20046;-55
2021/05/03 09:02:31;;;;;;;2.80;1.15;;;;;;;;;;5011023;28;20041;-57
2021/05/03 09:04:57;;;;;;;2.78;1.00;;;;;;;;;;5017092;28;20041;-54
2021/05/03 09:07:23;;;;;;;2.85;1.00;;;;;;;;;;5011436;28;20041;-55
2021/05/03 09:09:51;;;;;;;2.40;0.85;;;;;;;;;;5011408;28;20041;-57
2021/05/03 09:12:18;;;;;;;3.08;1.00;;;;;;;;;;5011136;28;20587;-56
2021/05/03 09:14:51;;;;;;;2.50;0.93;;;;;;;;;;5020568;28;20061;-56
2021/05/03 09:17:21;;;;;;;2.60;0.90;;;;;;;;;;5014874;28;20037;-54
2021/05/03 09:19:46;;;;;;;2.45;1.00;;;;;;;;;;5013255;28;20041;-57
2021/05/03 09:22:23;;;;;;;5.13;0.90;;;;;;;;;;4995548;28;20045;-57
2021/05/03 09:24:50;;;;;;;3.08;1.10;;;;;;;;;;5004343;28;20049;-55
2021/05/03 09:27:19;;;;;;;2.80;1.00;;;;;;;;;;5011338;28;20095;-54
2021/05/03 09:29:46;;;;;;;4.65;1.23;;;;;;;;;;5010738;28;20041;-54
2021/05/03 09:32:13;;;;;;;3.58;1.25;;;;;;;;;;5011253;28;20065;-55
2021/05/03 09:34:47;;;;;;;3.15;1.20;;;;;;;;;;5003304;28;20049;-56
2021/05/03 09:37:21;;;;;;;2.72;1.02;;;;;;;;;;5011988;28;20217;-55
2021/05/03 09:39:54;;;;;;;3.28;1.10;;;;;;;;;;5009796;28;20128;-56
2021/05/03 09:42:20;;;;;;;4.05;1.30;;;;;;;;;;5008977;28;20104;-56
2021/05/03 09:45:25;;;;;;;3.05;1.15;;;;;;;;;;5010582;28;20048;-55
2021/05/03 09:47:50;;;;;;;;;;;;;;;;;;4932275;28;20046;-55
2021/05/03 09:50:19;;;;;;;4.38;1.33;;;;;;;;;;4932904;28;19922;-55
2021/05/03 09:53:03;;;;;;;4.22;1.10;;;;;;;;;;4969676;28;20057;-55
2021/05/03 09:55:32;;;;;;;3.67;1.15;;;;;;;;;;5009917;28;20052;-53
2021/05/03 09:58:08;;;;;;;4.25;1.40;;;;;;;;;;5011136;28;20044;-56
2021/05/03 10:00:38;;;;;;;3.35;1.20;;;;;;;;;;5009338;28;20037;-56
2021/05/03 10:03:24;;;;;;;4.55;1.20;;;;;;;;;;5011797;28;20067;-56
2021/05/03 10:05:50;;;;;;;2.90;1.08;;;;;;;;;;5004514;28;20500;-53
2021/05/03 10:08:16;;;;;;;3.70;1.10;;;;;;;;;;5011136;28;20055;-54
2021/05/03 10:10:47;;;;;;;3.10;0.98;;;;;;;;;;5011976;28;20045;-53
2021/05/03 10:13:13;;;;;;;3.13;1.20;;;;;;;;;;5011610;28;20057;-55
2021/05/03 10:15:39;;;;;;;3.75;1.20;;;;;;;;;;5012451;28;20819;-55
2021/05/03 10:18:05;;;;;;;3.80;1.23;;;;;;;;;;5011485;28;20038;-56
2021/05/03 10:20:31;;;;;;;3.15;1.08;;;;;;;;;;5012625;28;20048;-57
2021/05/03 10:22:56;;;;;;;4.03;1.02;;;;;;;;;;5011974;28;20132;-56
2021/05/03 10:25:22;;;;;;;3.90;1.25;;;;;;;;;;5009968;28;20594;-55
2021/05/03 10:27:50;;;;;;;4.03;1.30;;;;;;;;;;5010258;28;20043;-55
2021/05/03 10:30:17;;;;;;;3.03;1.33;;;;;;;;;;5009749;28;20038;-56
2021/05/03 10:32:46;;;;;;;4.03;1.45;;;;;;;;;;5011078;28;20571;-55
2021/05/03 10:35:26;;;;;;;4.18;1.48;;;;;;;;;;5009737;28;20030;-55
2021/05/03 10:37:53;;;;;;;9.73;1.80;;;;;;;;;;5009939;28;20138;-55
2021/05/03 10:40:18;;;;;;;3.88;1.73;;;;;;;;;;5010376;28;20034;-55
2021/05/03 10:43:20;;;;;;;3.67;1.42;;;;;;;;;;4960249;28;1484575;-55
2021/05/03 10:51:08;;;;;;;3.92;1.70;;;;;;;;;;5012974;28;20037;-54
2021/05/03 10:53:37;;;;;;;4.53;1.75;;;;;;;;;;5010572;28;20060;-55
2021/05/03 10:56:05;;;;;;;4.60;1.80;;;;;;;;;;4994735;28;20120;-56
2021/05/03 10:58:30;;;;;;;6.18;1.88;;;;;;;;;;5010574;28;20037;-56
2021/05/03 11:00:56;;;;;;;3.83;1.70;;;;;;;;;;5012857;28;20127;-55
2021/05/03 11:03:41;;;;;;;4.57;1.70;;;;;;;;;;5011648;28;20041;-53
2021/05/03 11:06:06;;;;;;;4.07;1.80;;;;;;;;;;5012450;28;20041;-55
2021/05/03 11:08:32;;;;;;;4.32;1.65;;;;;;;;;;5012498;28;20080;-56
2021/05/03 11:10:58;;;;;;;4.07;1.67;;;;;;;;;;5011866;28;21004;-57
2021/05/03 11:13:36;;;;;;;3.63;1.60;;;;;;;;;;5011647;28;20080;-55
2021/05/03 11:16:21;;;;;;;5.68;2.10;;;;;;;;;;5011045;28;20033;-53
2021/05/03 11:18:46;;;;;;;4.97;1.92;;;;;;;;;;5011937;28;20050;-56
2021/05/03 11:21:15;;;;;;;6.53;1.83;;;;;;;;;;5012575;28;20042;-56
2021/05/03 11:23:41;;;;;;;5.68;1.80;;;;;;;;;;5012266;28;20042;-55
2021/05/03 11:26:29;;;;;;;11.00;2.58;;;;;;;;;;5011504;28;20061;-57
2021/05/03 11:29:06;;;;;;;9.80;2.17;;;;;;;;;;5010024;28;20041;-57
2021/05/03 11:31:32;;;;;;;5.57;1.70;;;;;;;;;;5011059;28;20045;-56
2021/05/03 11:34:04;;;;;;;6.80;2.17;;;;;;;;;;5011550;28;20115;-57
2021/05/03 11:36:35;;;;;;;10.93;1.98;;;;;;;;;;5010103;28;20049;-55
2021/05/03 11:39:17;;;;;;;9.27;2.90;;;;;;;;;;5010906;28;20052;-56
2021/05/03 11:42:22;;;;;;;13.45;3.47;;;;;;;;;;5010656;28;20499;-53
2021/05/03 11:44:50;;;;;;;5.22;2.90;;;;;;;;;;5009636;28;20045;-54
2021/05/03 11:47:16;;;;;;;6.88;3.80;;;;;;;;;;5012291;28;20103;-56
2021/05/03 11:49:44;;;;;;;7.47;4.22;;;;;;;;;;5010765;28;20117;-55
2021/05/03 11:52:10;;;;;;;7.00;3.65;;;;;;;;;;5012789;28;20121;-57
2021/05/03 11:54:38;;;;;;;9.60;4.47;;;;;;;;;;5010771;28;20196;-56
2021/05/03 11:57:17;;;;;;;8.38;4.68;;;;;;;;;;5010833;28;20507;-57
2021/05/03 11:59:42;;;;;;;11.68;4.32;;;;;;;;;;5011426;28;20673;-55
2021/05/03 12:02:13;;;;;;;8.63;3.67;;;;;;;;;;5011836;28;20037;-57
2021/05/03 12:04:42;;;;;;;10.13;3.83;;;;;;;;;;5012960;28;20803;-54
2021/05/03 12:07:11;;;;;;;7.20;4.10;;;;;;;;;;5011875;28;20073;-56
2021/05/03 12:09:37;;;;;;;10.70;3.83;;;;;;;;;;5010649;28;20044;-55
2021/05/03 12:12:03;;;;;;;9.13;4.15;;;;;;;;;;5009510;28;20069;-55
2021/05/03 12:14:40;;;;;;;11.00;5.97;;;;;;;;;;5009699;28;20042;-56
2021/05/03 12:17:16;;;;;;;15.50;6.78;;;;;;;;;;5009259;28;20042;-57
2021/05/03 12:19:43;;;;;;;14.55;7.22;;;;;;;;;;5007141;28;20571;-58
2021/05/03 12:22:08;;;;;;;9.18;5.20;;;;;;;;;;5009890;28;20987;-57
2021/05/03 12:24:36;;;;;;;10.50;5.03;;;;;;;;;;5009510;28;20061;-56
2021/05/03 12:27:02;;;;;;;12.80;5.70;;;;;;;;;;5009384;28;20042;-56
2021/05/03 12:29:29;;;;;;;10.60;5.22;;;;;;;;;;4993743;28;20037;-56
2021/05/03 12:31:55;;;;;;;12.23;4.72;;;;;;;;;;5008951;28;20045;-57
2021/05/03 12:34:22;;;;;;;18.60;5.43;;;;;;;;;;5008499;28;20077;-56
2021/05/03 12:37:03;;;;;;;8.38;5.03;;;;;;;;;;5010466;28;20993;-57
2021/05/03 12:39:29;;;;;;;10.18;4.82;;;;;;;;;;5008350;28;20045;-57
2021/05/03 12:41:55;;;;;;;12.95;5.43;;;;;;;;;;5009804;28;20227;-54
2021/05/03 12:44:25;;;;;;;12.85;4.85;;;;;;;;;;5010371;28;20643;-56
2021/05/03 12:46:51;;;;;;;9.32;4.93;;;;;;;;;;5010222;28;20040;-56
2021/05/03 12:49:28;;;;;;;12.02;4.88;;;;;;;;;;4993111;28;20495;-57
2021/05/03 12:52:02;;;;;;;10.25;4.45;;;;;;;;;;5008438;28;20128;-57
2021/05/03 12:54:44;;;;;;;10.68;4.60;;;;;;;;;;5008320;28;20672;-56
2021/05/03 12:57:22;;;;;;;9.15;4.70;;;;;;;;;;5010751;28;20049;-53
2021/05/03 13:04:50;;;;;;;10.48;6.25;;;;;;;;;;5010980;28;20041;-58
2021/05/03 13:29:12;;;;;;;12.77;8.98;;;;;;;;;;5012281;28;20136;-57
2021/05/03 13:31:39;;;;;;;11.15;8.32;;;;;;;;;;5010990;28;20045;-55
2021/05/03 13:34:05;;;;;;;13.50;7.65;;;;;;;;;;5012045;28;20045;-54
2021/05/03 13:36:32;;;;;;;11.63;6.50;;;;;;;;;;5011287;28;20053;-57
2021/05/03 13:38:57;;;;;;;12.57;7.88;;;;;;;;;;5014048;28;20034;-54
2021/05/03 13:41:23;;;;;;;11.30;7.75;;;;;;;;;;5012102;28;20510;-57
2021/05/03 13:43:50;;;;;;;16.10;7.03;;;;;;;;;;5013337;28;20080;-58
2021/05/03 13:46:16;;;;;;;13.65;7.53;;;;;;;;;;5013750;28;20049;-58
2021/05/03 13:48:42;;;;;;;17.80;7.32;;;;;;;;;;5012713;28;20160;-56
2021/05/03 13:51:08;;;;;;;16.95;6.97;;;;;;;;;;5012034;28;20029;-56
2021/05/03 13:53:34;;;;;;;10.95;5.85;;;;;;;;;;5012267;28;20699;-58
2021/05/03 13:56:01;;;;;;;8.50;5.80;;;;;;;;;;5013136;28;20037;-56
2021/05/03 13:58:26;;;;;;;11.18;5.38;;;;;;;;;;5013555;28;20057;-58
2021/05/03 14:00:52;;;;;;;9.60;6.10;;;;;;;;;;5014193;28;20080;-57
2021/05/03 14:03:18;;;;;;;13.55;6.65;;;;;;;;;;5014123;28;20099;-56
2021/05/03 14:05:44;;;;;;;14.20;7.38;;;;;;;;;;5014199;28;20044;-54
2021/05/03 14:08:10;;;;;;;17.05;9.48;;;;;;;;;;5013351;28;20042;-54
2021/05/03 14:10:36;;;;;;;21.63;9.45;;;;;;;;;;5011657;28;21999;-57
2021/05/03 14:13:04;;;;;;;17.05;8.27;;;;;;;;;;5015433;28;20052;-56
2021/05/03 14:15:32;;;;;;;14.90;6.82;;;;;;;;;;5013911;28;20473;-54
2021/05/03 14:17:58;;;;;;;8.52;5.80;;;;;;;;;;5016725;28;20048;-56
2021/05/03 14:20:25;;;;;;;8.77;6.03;;;;;;;;;;5014618;28;20045;-55
2021/05/03 14:22:50;;;;;;;7.85;4.88;;;;;;;;;;5000098;28;20367;-55
2021/05/03 14:25:18;;;;;;;5.93;3.70;;;;;;;;;;5015673;28;20042;-57
2021/05/03 14:27:45;;;;;;;10.80;4.43;;;;;;;;;;5016206;28;20196;-54
2021/05/03 14:30:20;;;;;;;6.85;4.05;;;;;;;;;;5015065;28;20398;-57
2021/05/03 14:32:53;;;;;;;7.72;5.15;;;;;;;;;;5014907;28;20110;-54
2021/05/03 14:35:24;;;;;;;11.82;6.07;;;;;;;;;;5016637;28;20625;-57
2021/05/03 14:37:50;;;;;;;10.45;7.03;;;;;;;;;;5013311;28;20061;-57
2021/05/03 14:40:17;;;;;;;6.43;4.95;;;;;;;;;;5013829;28;20037;-56
2021/05/03 14:42:45;;;;;;;6.97;5.13;;;;;;;;;;5014902;28;20099;-58
2021/05/03 14:45:12;;;;;;;8.25;5.25;;;;;;;;;;5016983;28;20064;-53
2021/05/03 14:47:54;;;;;;;7.43;4.07;;;;;;;;;;5015409;28;20829;-56
2021/05/03 14:55:14;;;;;;;6.70;4.75;;;;;;;;;;5012538;28;20069;-55
2021/05/03 14:57:40;;;;;;;7.95;4.40;;;;;;;;;;5012215;28;20144;-56
2021/05/03 15:00:06;;;;;;;6.43;3.75;;;;;;;;;;5011622;28;20152;-56
2021/05/03 15:02:32;;;;;;;4.68;3.00;;;;;;;;;;5003780;28;20041;-57
2021/05/03 15:04:58;;;;;;;5.43;2.88;;;;;;;;;;5001011;28;20041;-57
2021/05/03 15:07:25;;;;;;;4.95;3.00;;;;;;;;;;5006404;28;20045;-56
2021/05/03 15:09:51;;;;;;;7.25;3.50;;;;;;;;;;5012306;28;20038;-55
2021/05/03 15:12:22;;;;;;;5.57;2.97;;;;;;;;;;4992922;28;20044;-59
2021/05/03 15:15:10;;;;;;;5.78;3.13;;;;;;;;;;5010870;28;20049;-59
2021/05/03 15:22:47;;;;;;;4.90;2.33;;;;;;;;;;5011611;28;20037;-57
2021/05/03 15:25:13;;;;;;;4.05;2.20;;;;;;;;;;5012267;28;20041;-58
2021/05/03 15:35:37;;;;;;;7.43;2.40;;;;;;;;;;5010145;28;20048;-55
2021/05/03 15:38:03;;;;;;;3.50;2.00;;;;;;;;;;5014266;28;20150;-55
2021/05/03 15:40:30;;;;;;;4.53;2.10;;;;;;;;;;5011924;28;20046;-57
2021/05/03 15:42:58;;;;;;;7.20;1.83;;;;;;;;;;5012234;28;20072;-53
2021/05/03 15:45:25;;;;;;;3.20;1.60;;;;;;;;;;5011903;28;20048;-55
2021/05/03 15:47:53;;;;;;;4.53;1.80;;;;;;;;;;4994502;28;20042;-58
2021/05/03 15:50:20;;;;;;;4.47;1.88;;;;;;;;;;5008390;28;20049;-57
2021/05/03 15:52:46;;;;;;;4.18;1.73;;;;;;;;;;4992894;28;20125;-55
2021/05/03 15:55:12;;;;;;;7.50;1.67;;;;;;;;;;5013160;28;20039;-54